»·PEaware :: N6182G KLAX-KSNA

N6182G :: KLAX-KSNA

FLIGHT INFORMATION

Flight Status: Arrived
Operator: Privately registered:
United States
More flights under this callsign
Pilot: Paul A. (20189)
Aircraft: CESSNA 182 SKYLANE
(C182)
More flights by this aircraft type
Origin: KLAX Los Angeles Intl
United States
Destination: KSNA John Wayne-Orange Co
United States
More flights between these airports :: More routes between these airports
Route: SLI8 SLI
File this flight plan on PilotEdge
Remarks: I6
Altitude:
(Current/Filed)
4,000ft
Speed:
(Current/Filed)
120kts
Departed: 28-Sep-18 11:20 AM
Arrived: 28-Sep-18 12:16 PM
Distance/Time
Traveled:
31nm/0:56
Distance/Time
To Go:
Arrived

Flight Plot

Page will automatically refresh every two minutes.

Flight plan parsing failed; only flown route is shown


Map Options




Map Legend


Flown Route
Filed Route
Departure Airport
Arrival Airport
Navaid (VOR, NDB)
Fix

Horizontal Profiles

Position Reports

Time Latitude Longitude Heading Altitude Ground
Speed
28-Sep-18 11:04 33.933861 -118.398759 263 129ft 0kts
28-Sep-18 11:05 33.933861 -118.398759 263 129ft 0kts
28-Sep-18 11:06 33.933861 -118.398759 263 129ft 0kts
28-Sep-18 11:07 33.933860 -118.398766 263 129ft 0kts
28-Sep-18 11:08 33.933860 -118.398775 263 129ft 0kts
28-Sep-18 11:09 33.933859 -118.398784 263 129ft 0kts
28-Sep-18 11:10 33.933858 -118.398794 263 129ft 0kts
28-Sep-18 11:11 33.933857 -118.398803 263 129ft 0kts
28-Sep-18 11:12 33.933856 -118.398807 263 129ft 0kts
28-Sep-18 11:13 33.933856 -118.398809 263 129ft 0kts
28-Sep-18 11:14 33.933856 -118.398810 263 129ft 0kts
28-Sep-18 11:15 33.933856 -118.398812 263 129ft 0kts
28-Sep-18 11:16 33.933856 -118.398813 263 129ft 0kts
28-Sep-18 11:17 33.934069 -118.398577 79 129ft 10kts
28-Sep-18 11:18 33.934649 -118.397410 85 129ft 3kts
28-Sep-18 11:19 33.935071 -118.393162 83 129ft 16kts
28-Sep-18 11:20 33.935562 -118.391024 344 129ft 0kts
28-Sep-18 11:21 33.935680 -118.391063 344 129ft 7kts
28-Sep-18 11:22 33.936195 -118.401235 274 480ft 60kts
28-Sep-18 11:31 33.933833 -118.398959 259 129ft 0kts
28-Sep-18 11:32 33.933833 -118.398961 259 129ft 0kts
28-Sep-18 11:33 33.933932 -118.398950 67 129ft 5kts
28-Sep-18 11:34 33.934719 -118.396616 83 129ft 12kts
28-Sep-18 11:35 33.935034 -118.393526 82 129ft 1kts
28-Sep-18 11:36 33.935526 -118.391101 28 129ft 2kts
28-Sep-18 11:37 33.935638 -118.391051 18 129ft 0kts
28-Sep-18 11:38 33.935639 -118.391051 18 129ft 0kts
28-Sep-18 11:39 33.935641 -118.391050 18 129ft 0kts
28-Sep-18 11:40 33.936373 -118.392711 263 130ft 40kts
28-Sep-18 11:41 33.933348 -118.416857 263 1022ft 83kts
28-Sep-18 11:42 33.923012 -118.442381 214 2024ft 95kts
28-Sep-18 11:43 33.900198 -118.460099 205 3031ft 98kts
28-Sep-18 11:44 33.885718 -118.442911 98 3975ft 101kts
28-Sep-18 11:45 33.876343 -118.402063 107 4008ft 140kts
28-Sep-18 11:46 33.865025 -118.359857 107 3988ft 118kts
28-Sep-18 11:47 33.855012 -118.322304 107 4003ft 122kts
28-Sep-18 11:48 33.844593 -118.283274 107 4001ft 123kts
28-Sep-18 11:49 33.834638 -118.246048 107 3998ft 114kts
28-Sep-18 11:50 33.824124 -118.206762 107 3991ft 120kts
28-Sep-18 11:51 33.814253 -118.169978 107 3998ft 112kts
28-Sep-18 11:52 33.804704 -118.134401 107 3999ft 111kts
28-Sep-18 11:53 33.795155 -118.098874 107 4001ft 113kts
28-Sep-18 11:54 33.785192 -118.061818 107 4003ft 118kts
28-Sep-18 11:55 33.794472 -118.026535 63 3996ft 110kts
28-Sep-18 11:56 33.808726 -117.991476 64 4008ft 119kts
28-Sep-18 11:57 33.823346 -117.955133 64 4000ft 121kts
28-Sep-18 11:58 33.837972 -117.918732 64 4000ft 121kts
28-Sep-18 11:59 33.852581 -117.882335 64 4000ft 121kts
28-Sep-18 12:00 33.867228 -117.845803 64 4000ft 121kts
28-Sep-18 12:01 33.881808 -117.809400 64 4000ft 121kts
28-Sep-18 12:02 33.896427 -117.772862 64 4000ft 121kts
28-Sep-18 12:03 33.911012 -117.736368 64 4000ft 121kts
28-Sep-18 12:04 33.932018 -117.705306 28 3746ft 127kts
28-Sep-18 12:05 33.958204 -117.692496 347 3494ft 95kts
28-Sep-18 12:06 33.960169 -117.716778 203 3568ft 101kts
28-Sep-18 12:07 33.932728 -117.709887 166 3485ft 96kts
28-Sep-18 12:08 33.907097 -117.721587 208 3412ft 102kts
28-Sep-18 12:09 33.882067 -117.737646 208 3408ft 106kts
28-Sep-18 12:10 33.856531 -117.753987 207 3398ft 102kts
28-Sep-18 12:11 33.830899 -117.770359 208 2949ft 103kts
28-Sep-18 12:12 33.805927 -117.786194 207 2796ft 102kts
28-Sep-18 12:13 33.781246 -117.801866 207 2219ft 92kts
28-Sep-18 12:14 33.756315 -117.817807 208 1828ft 93kts
28-Sep-18 12:15 33.733300 -117.832565 208 1310ft 94kts
28-Sep-18 12:16 33.710859 -117.846535 208 713ft 81kts
28-Sep-18 12:17 33.690787 -117.859340 207 283ft 82kts
28-Sep-18 12:18 33.675615 -117.868818 194 59ft 17kts
28-Sep-18 12:19 33.673818 -117.867409 119 59ft 13kts
28-Sep-18 12:20 33.670824 -117.869154 220 59ft 21kts
28-Sep-18 12:21 33.667128 -117.872542 131 59ft 9kts
28-Sep-18 12:22 33.666881 -117.872169 127 59ft 0kts
28-Sep-18 12:23 33.666880 -117.872169 127 59ft 0kts
28-Sep-18 12:24 33.666880 -117.872169 127 59ft 0kts
28-Sep-18 12:25 33.666880 -117.872169 127 59ft 0kts
28-Sep-18 12:26 33.666880 -117.872169 127 59ft 0kts
28-Sep-18 12:27 33.666880 -117.872169 127 59ft 0kts

Navigation Log

Ident Type
Flight plan parsing failed, navigation log unavailable